createdAt,value
2019-05-21T03:03:42.976Z,15.20
2019-05-21T03:41:58.522Z,15.04
2019-05-21T03:51:57.150Z,14.94
2019-05-21T03:56:33.151Z,15.00
2019-05-21T04:12:20.017Z,14.86
2019-05-21T06:49:10.202Z,14.48
2019-05-21T07:53:58.767Z,14.91
2019-05-21T07:58:23.245Z,14.77
2019-05-21T08:02:47.801Z,14.77
2019-05-21T08:07:12.545Z,14.87
2019-05-21T08:11:38.342Z,14.90
2019-05-21T08:16:03.045Z,15.04
2019-05-21T08:20:27.487Z,15.04
2019-05-21T08:24:52.323Z,15.08
2019-05-21T08:29:16.275Z,15.04
2019-05-21T08:33:40.694Z,14.92
2019-05-21T08:38:06.899Z,14.87
2019-05-21T08:42:30.916Z,14.79
2019-05-21T08:46:55.205Z,14.81
2019-05-21T08:51:19.330Z,14.83
2019-05-21T08:55:43.207Z,14.86
2019-05-21T09:00:09.255Z,14.94
2019-05-21T09:04:46.011Z,15.00
2019-05-21T09:09:00.072Z,15.09
2019-05-21T09:13:24.242Z,15.07
2019-05-21T09:17:48.140Z,15.09
2019-05-21T09:22:12.112Z,15.21
2019-05-21T09:26:36.605Z,15.25
2019-05-21T09:31:01.825Z,15.32
2019-05-21T09:35:26.870Z,15.49
2019-05-21T09:39:50.860Z,15.57
2019-05-21T09:44:15.054Z,15.68
2019-05-21T09:48:39.168Z,15.75
2019-05-21T09:53:03.070Z,15.80
2019-05-21T09:57:37.221Z,15.90
2019-05-21T10:02:07.064Z,15.92
2019-05-21T10:06:31.298Z,15.94
2019-05-21T10:10:55.479Z,16.11
2019-05-21T10:15:19.870Z,16.21
2019-05-21T10:19:43.730Z,16.35
2019-05-21T10:24:08.007Z,16.67
2019-05-21T10:28:32.128Z,16.67
2019-05-21T10:32:56.096Z,16.73
2019-05-21T10:37:21.210Z,16.82
2019-05-21T10:41:46.145Z,16.94
2019-05-21T10:46:11.459Z,17.05
2019-05-21T10:50:35.545Z,17.12
2019-05-21T10:54:59.456Z,17.31
2019-05-21T10:59:23.969Z,17.43
2019-05-21T11:04:05.807Z,17.41
2019-05-21T11:08:30.212Z,17.49
2019-05-21T11:12:54.416Z,17.60
2019-05-21T11:17:18.911Z,17.67
2019-05-21T11:21:43.108Z,17.65
2019-05-21T11:26:07.592Z,17.69
2019-05-21T11:30:31.798Z,17.75
2019-05-21T11:34:55.976Z,17.71
2019-05-21T11:39:21.035Z,17.69
2019-05-21T11:43:45.142Z,17.68
2019-05-21T11:48:10.339Z,17.63
2019-05-21T11:52:34.789Z,17.64
2019-05-21T11:56:58.932Z,17.80
2019-05-21T12:01:23.211Z,17.76
2019-05-21T12:05:47.427Z,17.83
2019-05-21T12:10:11.681Z,17.83
2019-05-21T12:14:35.814Z,17.88
2019-05-21T12:18:59.741Z,17.97
2019-05-21T12:23:23.867Z,18.05
2019-05-21T12:27:47.767Z,18.06
2019-05-21T12:32:12.033Z,18.21
2019-05-21T12:36:36.483Z,18.29
2019-05-21T12:41:00.348Z,18.29
2019-05-21T12:45:24.683Z,18.30
2019-05-21T12:49:48.805Z,18.11
2019-05-21T12:54:13.222Z,18.11
2019-05-21T12:58:37.426Z,18.04
2019-05-21T13:03:01.923Z,18.04
2019-05-21T13:07:25.824Z,18.04
2019-05-21T13:11:49.778Z,17.91
2019-05-21T13:16:13.983Z,17.71
2019-05-21T13:20:38.159Z,17.79
2019-05-21T13:25:02.263Z,17.84
2019-05-21T13:29:26.747Z,17.82
2019-05-21T13:33:50.665Z,17.82
2019-05-21T13:38:16.251Z,17.80
2019-05-21T13:42:40.652Z,17.69
2019-05-21T13:47:06.069Z,17.75
2019-05-21T13:51:30.532Z,17.77
2019-05-21T13:55:54.421Z,17.66
2019-05-21T14:00:24.933Z,17.51
2019-05-21T14:04:48.929Z,17.43
2019-05-21T14:09:13.351Z,17.37
2019-05-21T14:13:37.385Z,17.38
2019-05-21T14:18:01.792Z,17.38
2019-05-21T14:22:25.707Z,17.37
2019-05-21T14:26:49.949Z,17.32
2019-05-21T14:31:14.571Z,17.32
2019-05-21T14:35:38.883Z,17.41
2019-05-21T14:40:03.069Z,17.54
2019-05-21T14:44:27.034Z,17.52
2019-05-21T14:48:51.165Z,17.45
2019-05-21T14:53:15.613Z,17.33
2019-05-21T14:57:39.546Z,17.19
2019-05-21T15:02:04.128Z,17.24
2019-05-21T15:06:28.317Z,17.17
2019-05-21T15:10:53.133Z,17.15
2019-05-21T15:15:17.414Z,17.11
2019-05-21T15:19:43.414Z,17.01
2019-05-21T15:24:08.814Z,17.00
2019-05-21T15:28:32.900Z,16.95
2019-05-21T15:32:57.052Z,16.74
2019-05-21T15:37:21.584Z,16.74
2019-05-21T15:41:45.466Z,16.72
2019-05-21T15:46:09.648Z,16.72
2019-05-21T15:50:34.944Z,16.61
2019-05-21T15:54:58.969Z,16.60
2019-05-21T15:59:23.328Z,16.62
2019-05-21T16:03:47.379Z,16.66
2019-05-21T16:08:11.534Z,16.59
2019-05-21T16:12:35.731Z,16.47
2019-05-21T16:16:59.615Z,16.39
2019-05-21T16:21:23.796Z,16.38
2019-05-21T16:25:48.097Z,16.34
2019-05-21T16:30:13.376Z,16.21
2019-05-21T16:34:38.105Z,16.18
2019-05-21T16:39:02.681Z,16.22
2019-05-21T16:43:26.990Z,16.21
2019-05-21T16:47:51.128Z,16.20
2019-05-21T16:52:15.321Z,16.14
2019-05-21T16:56:39.574Z,16.13
2019-05-21T17:01:05.735Z,16.06
2019-05-21T17:05:30.752Z,16.00
2019-05-21T17:09:54.851Z,15.89
2019-05-21T17:14:18.729Z,15.82
2019-05-21T17:18:42.693Z,15.74
2019-05-21T17:23:07.117Z,15.75
2019-05-21T17:27:33.195Z,15.75
2019-05-21T17:31:58.517Z,15.69
2019-05-21T17:36:23.137Z,15.60
2019-05-21T17:40:48.450Z,15.58
2019-05-21T17:45:13.551Z,15.49
2019-05-21T17:49:38.112Z,15.46
2019-05-21T17:54:03.932Z,15.51
2019-05-21T17:58:28.740Z,15.47
2019-05-21T18:02:52.918Z,15.49
2019-05-21T18:07:18.774Z,15.37
2019-05-21T18:11:45.466Z,15.35
2019-05-21T18:16:11.304Z,15.28
2019-05-21T18:20:35.614Z,15.09
2019-05-21T18:25:00.385Z,15.18
2019-05-21T18:29:24.848Z,15.13
2019-05-21T18:33:49.037Z,15.12
2019-05-21T18:38:13.422Z,15.10
2019-05-21T18:42:37.650Z,15.09
2019-05-21T18:47:05.457Z,15.17
2019-05-21T18:56:02.883Z,15.24
2019-05-21T19:00:28.620Z,15.18
2019-05-21T19:04:52.853Z,15.12
2019-05-21T19:09:17.624Z,15.10
2019-05-21T19:13:43.357Z,15.10
2019-05-21T19:18:08.470Z,15.06
2019-05-21T19:22:32.582Z,15.04
2019-05-21T19:26:56.469Z,14.98
2019-05-21T19:31:20.966Z,14.89
2019-05-21T19:35:45.232Z,14.83
2019-05-21T19:40:11.551Z,14.78
2019-05-21T19:44:36.335Z,14.73
2019-05-21T19:49:00.509Z,14.70
2019-05-21T19:53:24.641Z,14.65
2019-05-21T19:57:49.743Z,14.68
2019-05-21T20:02:15.077Z,14.69
2019-05-21T20:06:39.551Z,14.65
2019-05-21T20:11:04.763Z,14.60
2019-05-21T20:15:29.647Z,14.62
2019-05-21T20:19:54.402Z,14.58
2019-05-21T20:24:18.544Z,14.53
2019-05-21T20:28:43.502Z,14.52
2019-05-21T20:33:09.502Z,14.63
2019-05-21T20:37:36.256Z,14.63
2019-05-21T20:42:01.360Z,14.73
2019-05-21T20:46:25.540Z,14.71
2019-05-21T20:50:49.956Z,14.69
2019-05-21T20:55:15.597Z,14.67
2019-05-21T20:59:39.957Z,14.66
2019-05-21T21:04:06.365Z,14.62
2019-05-21T21:08:32.729Z,14.57
2019-05-21T21:12:57.052Z,14.53
2019-05-21T21:17:21.260Z,14.55
2019-05-21T21:21:45.536Z,14.52
2019-05-21T21:26:11.639Z,14.52
2019-05-21T21:30:36.214Z,14.58
2019-05-21T21:35:00.568Z,14.64
2019-05-21T21:39:25.771Z,14.67
2019-05-21T21:43:50.660Z,14.71
2019-05-21T21:48:16.580Z,14.71
2019-05-21T21:52:41.366Z,14.61
2019-05-21T21:57:05.951Z,14.52
2019-05-21T22:01:51.161Z,14.47
2019-05-21T22:06:19.093Z,14.46
2019-05-21T22:10:45.938Z,14.53
2019-05-21T22:15:10.499Z,14.53
2019-05-21T22:19:35.113Z,14.44
2019-05-21T22:23:59.496Z,14.57
2019-05-21T22:28:23.974Z,14.59
2019-05-21T22:32:48.288Z,14.53
2019-05-21T22:37:14.977Z,14.58
2019-05-21T22:41:39.158Z,14.61
2019-05-21T22:46:03.336Z,14.58
2019-05-21T22:50:29.017Z,14.60
2019-05-21T22:54:53.275Z,14.57
2019-05-21T22:59:19.304Z,14.47
2019-05-21T23:03:45.340Z,14.51
2019-05-21T23:08:10.108Z,14.39
2019-05-21T23:12:34.352Z,14.41
2019-05-21T23:16:58.405Z,14.29
2019-05-21T23:21:25.028Z,14.29
2019-05-21T23:25:49.239Z,14.28
2019-05-21T23:30:15.776Z,14.28
2019-05-21T23:34:41.139Z,14.20
2019-05-21T23:39:09.301Z,14.16
2019-05-21T23:43:33.767Z,14.17
2019-05-21T23:47:58.285Z,14.11
2019-05-21T23:52:23.868Z,14.05
2019-05-21T23:56:49.808Z,14.01
